Terminal Aerodrome Forecast
Issued by NWS

Home | Current Version | Previous Version | Text Only | Print | Product List | Glossary Off
Versions: 1 2 3 4 5 6 7 8 9 10 11 12 13 14 15

196
FTUS43 KBIS 032330
TAFJMS
TAF
KJMS 032330Z 0400/0424 29013KT P6SM BKN025
     FM040300 28006KT P6SM VCSH OVC020
      TEMPO 0403/0406 2SM -SN
     FM040700 30007KT P6SM OVC025
     FM041300 32008KT P6SM OVC015
     FM041700 32008KT P6SM BKN025
     FM042100 28006KT P6SM BKN130=

USA.gov is the U.S. government's official web portal to all federal, state and local government web resources and services.